Flight Track Log - Related Links

Times and Time Zones

All times are in EDT time to prevent confusion due to time zone crossing. See the GJS3710 flight status page for this flight to view local times or setup timezone preferences in your user account.


Time Position Orientation Groundspeed Altitude Reporting Facility
EDT Latitude Longitude Course Direction KTS MPH feet Rate Location/Type
Fri 03:27:01 PM 29.9739 -90.2539 North 166 191 700  Level Houston Center
Fri 03:28:07 PM 29.9353 -90.2825 213° Southwest 208 239 2,600 2,109 Climbing Houston Center
Fri 03:29:09 PM 29.9181 -90.3511 254° West 222 255 5,200 2,323 Climbing Houston Center
Fri 03:30:00 PM 30.3762 -90.4547 337° Northwest  Level FlightAware Approximate
Fri 03:30:11 PM 29.9172 -90.4256 269° West 241 277 7,400  Level Houston Center
Fri 03:31:00 PM 30.4794 -90.4500 North  Level FlightAware Approximate
Fri 03:31:13 PM 29.9933 -90.4408 350° North 266 306 9,900  Level Houston Center
Fri 03:32:00 PM 30.5874 -90.4440 North  Level FlightAware Approximate
Fri 03:32:15 PM 30.0789 -90.4517 354° North 293 337 11,000  Level Houston Center
Fri 03:33:17 PM 30.1994 -90.4686 353° North 343 395 12,400 1,452 Climbing Houston Center
Fri 03:34:19 PM 30.3061 -90.4850 352° North 373 429 14,000 1,839 Climbing Houston Center
Fri 03:35:21 PM 30.4142 -90.5000 353° North 385 443 16,200 1,968 Climbing Houston Center
Fri 03:36:24 PM 30.5189 -90.5139 353° North 378 435 18,100 1,392 Climbing Houston Center
Fri 03:37:26 PM 30.6308 -90.5114 North 398 458 19,100 968 Climbing Houston Center
Fri 03:38:28 PM 30.7492 -90.5014 North 418 481 20,100 968 Climbing Houston Center
Fri 03:39:30 PM 30.8714 -90.4925 North 433 498 21,100 1,161 Climbing Houston Center
Fri 03:40:32 PM 31.0217 -90.4794 North 448 516 22,500 1,210 Climbing Houston Center
Fri 03:41:34 PM 31.1472 -90.4689 North 450 518 23,600 1,016 Climbing Houston Center
Fri 03:42:36 PM 31.2731 -90.4597 North 452 520 24,600 968 Climbing Houston Center
Fri 03:43:38 PM 31.4028 -90.4483 North 463 533 25,600 672 Climbing Houston Center
Fri 03:44:41 PM 31.5308 -90.4389 North 462 532 26,000 384 Climbing Houston Center
Fri 03:45:43 PM 31.6619 -90.4283 North 469 540 26,400 774 Climbing Houston Center
Fri 03:46:45 PM 31.8197 -90.4147 North 472 543 27,600 1,046 Climbing Houston Center
Fri 03:47:32 PM 31.9100 -90.4111 North 458 527 28,300 785 Climbing Memphis Center
Fri 03:48:32 PM 32.0331 -90.4186 357° North 451 519 29,000 450 Climbing Memphis Center
Fri 03:49:32 PM 32.1583 -90.4308 355° North 451 519 29,200 600 Climbing Memphis Center
Fri 03:50:32 PM 32.2836 -90.4383 357° North 446 513 30,200 1,000 Climbing Memphis Center
Fri 03:51:32 PM 32.4089 -90.4483 356° North 441 507 31,200 950 Climbing Memphis Center
Fri 03:52:32 PM 32.5342 -90.4558 357° North 441 507 32,100 850 Climbing Memphis Center
Fri 03:53:32 PM 32.6594 -90.4683 355° North 446 513 32,900 800 Climbing Memphis Center
Fri 03:54:32 PM 32.7825 -90.4808 355° North 446 513 33,700 800 Climbing Memphis Center
Fri 03:55:32 PM 32.9097 -90.4883 357° North 441 507 34,500 800 Climbing Memphis Center
Fri 03:56:32 PM 33.0331 -90.4986 356° North 441 507 35,300 1,050 Climbing Memphis Center
Fri 03:57:32 PM 33.1542 -90.5111 355° North 441 507 36,600 1,000 Climbing Memphis Center
Fri 03:58:32 PM 33.2731 -90.5189 357° North 436 502 37,300 600 Climbing Memphis Center
Fri 03:59:32 PM 33.3942 -90.5289 356° North 431 496 37,800 350 Climbing Memphis Center
Fri 04:00:32 PM 33.5153 -90.5367 357° North 426 490 38,000 100 Climbing Memphis Center
Fri 04:01:32 PM 33.6383 -90.5469 356° North 426 490 38,000  Level Memphis Center
Fri 04:02:32 PM 33.7614 -90.5572 356° North 442 509 38,000  Level Memphis Center
Fri 04:03:32 PM 33.8992 -90.5725 355° North 442 509 38,000  Level Memphis Center
Fri 04:04:32 PM 34.0306 -90.5778 358° North 448 516 38,000  Level Memphis Center
Fri 04:05:32 PM 34.1453 -90.5856 357° North 461 531 38,000  Level Memphis Center
Fri 04:06:32 PM 34.2728 -90.5983 355° North 461 531 38,000  Level Memphis Center
Fri 04:07:32 PM 34.4042 -90.6064 357° North 461 531 38,000  Level Memphis Center
Fri 04:08:32 PM 34.5336 -90.5967 North 454 522 38,000  Level Memphis Center
Fri 04:09:32 PM 34.6753 -90.6097 356° North 459 528 38,000  Level Memphis Center
Fri 04:10:32 PM 34.8047 -90.6175 357° North 465 535 38,000  Level Memphis Center
Fri 04:11:32 PM 34.9342 -90.6306 355° North 460 529 38,000  Level Memphis Center
Fri 04:12:32 PM 35.0656 -90.6411 356° North 460 529 38,000  Level Memphis Center
Fri 04:13:32 PM 35.1928 -90.6517 356° North 460 529 38,000  Level Memphis Center
Fri 04:14:32 PM 35.3178 -90.6625 356° North 455 524 38,000  Level Memphis Center
Fri 04:15:32 PM 35.4472 -90.6731 356° North 464 534 38,000  Level Memphis Center
Fri 04:16:32 PM 35.5597 -90.6836 356° North 459 528 38,000  Level Memphis Center
Fri 04:17:32 PM 35.6911 -90.6944 356° North 459 528 38,000  Level Memphis Center
Fri 04:18:32 PM 35.8100 -90.7078 355° North 453 521 38,000  Level Memphis Center
Fri 04:19:32 PM 35.9372 -90.7183 356° North 453 521 38,000  Level Memphis Center
Fri 04:20:32 PM 36.0642 -90.7319 355° North 453 521 38,000  Level Memphis Center
Fri 04:21:32 PM 36.1914 -90.7428 356° North 453 521 38,000  Level Memphis Center
Fri 04:22:32 PM 36.3228 -90.7561 355° North 465 535 38,000  Level Memphis Center
Fri 04:23:32 PM 36.4478 -90.7672 356° North 460 529 38,000  Level Memphis Center
Fri 04:24:32 PM 36.5789 -90.7781 356° North 460 529 38,000  Level Memphis Center
Fri 04:26:36 PM 36.8392 -90.7981 356° North 464 534 38,000  Level Kansas City Center
Fri 04:27:38 PM 36.9681 -90.8100 356° North 463 533 38,000  Level Kansas City Center
Fri 04:28:40 PM 37.1231 -90.8231 356° North 461 531 38,000  Level Kansas City Center
Fri 04:29:42 PM 37.2517 -90.8331 356° North 462 532 38,000  Level Kansas City Center
Fri 04:30:44 PM 37.3819 -90.8450 356° North 464 534 38,000  Level Kansas City Center
Fri 04:31:46 PM 37.5106 -90.8569 356° North 465 535 38,000  Level Kansas City Center
Fri 04:32:48 PM 37.6414 -90.8692 356° North 461 531 38,000  Level Kansas City Center
Fri 04:33:50 PM 37.7686 -90.8822 355° North 459 528 38,000  Level Kansas City Center
Fri 04:34:52 PM 37.8972 -90.8947 356° North 461 531 38,000  Level Kansas City Center
Fri 04:35:54 PM 38.0242 -90.9064 356° North 459 528 38,000  Level Kansas City Center
Fri 04:36:57 PM 38.1778 -90.9211 356° North 459 528 38,000  Level Kansas City Center
Fri 04:37:59 PM 38.3058 -90.9339 356° North 459 528 38,000  Level Kansas City Center
Fri 04:39:01 PM 38.4328 -90.9472 355° North 457 526 38,000  Level Kansas City Center
Fri 04:40:03 PM 38.5522 -90.9583 356° North 439 505 38,000  Level Kansas City Center
Fri 04:41:05 PM 38.6631 -90.9675 356° North 408 470 38,000  Level Kansas City Center
Fri 04:42:07 PM 38.7753 -90.9775 356° North 406 467 38,000  Level Kansas City Center
Fri 04:43:09 PM 38.8831 -91.0228 342° North 405 466 38,000  Level Kansas City Center
Fri 04:44:11 PM 38.9994 -91.1053 331° Northwest 400 460 38,000  Level Kansas City Center
Fri 04:45:13 PM 39.0872 -91.1933 322° Northwest 400 460 38,000 -145 Level Kansas City Center
Fri 04:46:15 PM 39.1750 -91.2814 322° Northwest 399 459 37,700 -629 Descending Kansas City Center
Fri 04:47:17 PM 39.2658 -91.3697 323° Northwest 405 466 36,700 -968 Descending Kansas City Center
Fri 04:48:19 PM 39.3564 -91.4556 324° Northwest 405 466 35,700 -823 Descending Kansas City Center
Fri 04:49:21 PM 39.4472 -91.5389 325° Northwest 402 463 35,000 -339 Descending Kansas City Center
Fri 04:50:23 PM 39.5742 -91.5914 342° North 409 471 35,000  Level Kansas City Center
Fri 04:51:25 PM 39.6892 -91.5525 15° North 423 487 35,000 -435 Level Kansas City Center
Fri 04:52:27 PM 39.7869 -91.4525 38° Northeast 444 511 34,100 -871 Descending Kansas City Center
Fri 04:53:29 PM 39.8753 -91.3358 45° Northeast 458 527 33,200 -532 Descending Kansas City Center
Fri 04:54:31 PM 39.9636 -91.2183 46° Northeast 459 528 33,000 -97 Descending Kansas City Center
Fri 04:55:33 PM 40.0714 -91.0750 45° Northeast 463 533 33,000  Level Kansas City Center
Fri 04:56:35 PM 40.1622 -90.9539 46° Northeast 469 540 33,000  Level Kansas City Center
Fri 04:57:29 PM 40.2522 -90.8339 45° Northeast 482 555 33,000  Level Chicago Center
Fri 04:58:31 PM 40.3489 -90.7053 45° Northeast 492 566 33,000  Level Chicago Center
Fri 04:59:34 PM 40.4461 -90.5742 46° Northeast 498 573 33,000  Level Chicago Center
Fri 05:00:36 PM 40.5425 -90.4433 46° Northeast 497 572 33,000 -339 Level Chicago Center
Fri 05:01:38 PM 40.6397 -90.3128 46° Northeast 498 573 32,300 -871 Descending Chicago Center
Fri 05:02:40 PM 40.7467 -90.1656 46° Northeast 500 575 31,200 -774 Descending Chicago Center
Fri 05:03:42 PM 40.8439 -90.0350 45° Northeast 500 575 30,700 -1,200 Descending Chicago Center
Fri 05:04:45 PM 40.9383 -89.9022 47° Northeast 496 571 28,700 -2,112 Descending Chicago Center
Fri 05:05:47 PM 41.0433 -89.7531 47° Northeast 477 549 26,300 -2,129 Descending Chicago Center
Fri 05:06:49 PM 41.1342 -89.6275 46° Northeast 473 544 24,300 -1,935 Descending Chicago Center
Fri 05:07:51 PM 41.2008 -89.4847 58° Northeast 463 533 22,300 -2,032 Descending Chicago Center
Fri 05:08:53 PM 41.2592 -89.3467 61° Northeast 437 503 20,100 -2,129 Descending Chicago Center
Fri 05:09:55 PM 41.3139 -89.2081 62° Northeast 426 490 17,900 -2,177 Descending Chicago Center
Fri 05:10:57 PM 41.3642 -89.0808 62° Northeast 401 461 15,600 -2,468 Descending Chicago Center
Fri 05:11:59 PM 41.4275 -88.9247 62° Northeast 397 457 12,800 -1,694 Descending Chicago Center
Fri 05:13:01 PM 41.4714 -88.8125 62° Northeast 339 390 12,100 -823 Descending Chicago Center
Fri 05:14:03 PM 41.5106 -88.7117 63° Northeast 305 351 11,100 -528 Descending Chicago Center
Fri 05:15:06 PM 41.5500 -88.6133 62° Northeast 300 345 11,000 -96 Descending Chicago Center
Fri 05:16:08 PM 41.5939 -88.5186 58° Northeast 302 348 10,900 -968 Descending Chicago Center
Fri 05:17:10 PM 41.6783 -88.4397 35° Northeast 305 351 9,000 -1,500 Descending Chicago Center
Fri 05:18:12 PM 41.7436 -88.3714 38° Northeast 293 337 7,800 -871 Descending Chicago Center
Fri 05:19:14 PM 41.7519 -88.2783 83° East 247 284 7,200 -629 Descending Chicago Center
Fri 05:20:16 PM 41.7644 -88.1961 78° East 227 261 6,500 -919 Descending Chicago Center
Fri 05:21:18 PM 41.7944 -88.1211 62° Northeast 226 260 5,300 -1,200 Descending Chicago Center
Fri 05:22:21 PM 41.8264 -88.0489 59° Northeast 234 269 4,000 -1,238 Descending Chicago Center

Login

Don't have an account? Register now (free) for customized features, flight alerts, and more!